^^
Grace C. Lehan Memorial Weather Station Historical Data
Daily Summary for April 15, 2022 Units:  Both    English   Metric
Daily Weekly Monthly Yearly
  High: Low: Average:
Temperature: 43.8 °F /  6.6 °C 27.2 °F /  -2.7 °C 31.7 °F /  -0.2 °C
Dew Point: 29.4 °F /  -1.4 °C 23.8 °F /  -4.6 °C 25.3 °F /  -3.7 °C
Humidity: 89.7% 49.3% 78%
Wind Speed: 1.9mph /  3.1km/h - 0.1mph /  0.2km/h
Wind Gust: 7mph /  11.3km/h - -
Wind- - ESE
Pressure: 30.49 in /  1032.4 hPa 30.40 in /  1029.3 hPa -
Precipitation: 0.00 in /  0 mm    
 
 
Tabular Data for April 15, 2022
Time Temperature Dew Point Pressure Wind Wind Speed Wind Gust Humidity Rainfall Rate (Hourly) solar
00:04 32.1 °F /  0.1 °C 23.8 °F /  -4.6 °C 30.41in /  1029.7hPa Calm     71% 0.00in /  0mm 0 W/m2
00:09 32 °F /  0 °C 24 °F /  -4.4 °C 30.41in /  1029.7hPa Calm     71.9% 0.00in /  0mm 0 W/m2
00:14 32 °F /  0 °C 24 °F /  -4.4 °C 30.41in /  1029.7hPa Calm     72% 0.00in /  0mm 0 W/m2
00:19 32 °F /  0 °C 24.2 °F /  -4.3 °C 30.41in /  1029.7hPa Calm     72.9% 0.00in /  0mm 0 W/m2
00:24 31.9 °F /  -0.1 °C 24.3 °F /  -4.3 °C 30.41in /  1029.7hPa Calm     73.3% 0.00in /  0mm 0 W/m2
00:29 31.8 °F /  -0.1 °C 24.2 °F /  -4.3 °C 30.41in /  1029.7hPa Calm     73.2% 0.00in /  0mm 0 W/m2
00:34 31.7 °F /  -0.2 °C 24.3 °F /  -4.3 °C 30.41in /  1029.7hPa Calm     73.8% 0.00in /  0mm 0 W/m2
00:39 31.6 °F /  -0.2 °C 24.3 °F /  -4.3 °C 30.41in /  1029.7hPa Calm     74% 0.00in /  0mm 0 W/m2
00:44 31.6 °F /  -0.2 °C 24.5 °F /  -4.2 °C 30.41in /  1029.7hPa Calm     74.7% 0.00in /  0mm 0 W/m2
00:49 31.6 °F /  -0.2 °C 24.3 °F /  -4.3 °C 30.42in /  1030hPa Calm     74.1% 0.00in /  0mm 0 W/m2
00:54 31.6 °F /  -0.2 °C 24.6 °F /  -4.1 °C 30.41in /  1029.7hPa Calm     74.9% 0.00in /  0mm 0 W/m2
00:59 31.6 °F /  -0.2 °C 24.6 °F /  -4.1 °C 30.41in /  1029.7hPa Calm     75% 0.00in /  0mm 0 W/m2
01:04 31.6 °F /  -0.2 °C 24.3 °F /  -4.3 °C 30.40in /  1029.3hPa Calm     74% 0.00in /  0mm 0 W/m2
01:09 31.6 °F /  -0.2 °C 24.3 °F /  -4.3 °C 30.41in /  1029.7hPa Calm     74.1% 0.00in /  0mm 0 W/m2
01:14 31.5 °F /  -0.3 °C 24.5 °F /  -4.2 °C 30.41in /  1029.7hPa Calm     75% 0.00in /  0mm 0 W/m2
01:19 31.4 °F /  -0.3 °C 24.4 °F /  -4.2 °C 30.41in /  1029.7hPa Calm     75% 0.00in /  0mm 0 W/m2
01:24 31.3 °F /  -0.4 °C 24.3 °F /  -4.3 °C 30.41in /  1029.7hPa Calm     75.2% 0.00in /  0mm 0 W/m2
01:29 31.1 °F /  -0.5 °C 24.5 °F /  -4.2 °C 30.41in /  1029.7hPa Calm     76% 0.00in /  0mm 0 W/m2
01:34 31 °F /  -0.6 °C 24.6 °F /  -4.1 °C 30.42in /  1030hPa Calm     76.9% 0.00in /  0mm 0 W/m2
01:39 30.8 °F /  -0.7 °C 24.8 °F /  -4 °C 30.42in /  1030hPa Calm     77.9% 0.00in /  0mm 0 W/m2
01:44 30.7 °F /  -0.7 °C 24.4 °F /  -4.2 °C 30.41in /  1029.7hPa Calm     77% 0.00in /  0mm 0 W/m2
01:49 30.6 °F /  -0.8 °C 24.3 °F /  -4.3 °C 30.41in /  1029.7hPa Calm     77% 0.00in /  0mm 0 W/m2
01:54 30.5 °F /  -0.8 °C 24.2 °F /  -4.3 °C 30.42in /  1030hPa Calm     77.2% 0.00in /  0mm 0 W/m2
01:59 30.4 °F /  -0.9 °C 24.4 °F /  -4.2 °C 30.42in /  1030hPa Calm     78% 0.00in /  0mm 0 W/m2
02:04 30.3 °F /  -0.9 °C 24.4 °F /  -4.2 °C 30.42in /  1030hPa Calm     78.6% 0.00in /  0mm 0 W/m2
02:09 30.1 °F /  -1.1 °C 24.4 °F /  -4.2 °C 30.42in /  1030hPa Calm     79% 0.00in /  0mm 0 W/m2
02:14 30 °F /  -1.1 °C 24.5 °F /  -4.2 °C 30.42in /  1030hPa Calm     79.5% 0.00in /  0mm 0 W/m2
02:19 29.9 °F /  -1.2 °C 24.5 °F /  -4.2 °C 30.42in /  1030hPa Calm     80% 0.00in /  0mm 0 W/m2
02:24 29.8 °F /  -1.2 °C 24.5 °F /  -4.2 °C 30.42in /  1030hPa Calm     80.3% 0.00in /  0mm 0 W/m2
02:29 29.7 °F /  -1.3 °C 24.6 °F /  -4.1 °C 30.42in /  1030hPa Calm     81% 0.00in /  0mm 0 W/m2
02:34 29.7 °F /  -1.3 °C 24.6 °F /  -4.1 °C 30.42in /  1030hPa Calm     81% 0.00in /  0mm 0 W/m2
02:39 29.6 °F /  -1.3 °C 24.5 °F /  -4.2 °C 30.43in /  1030.4hPa Calm     81% 0.00in /  0mm 0 W/m2
02:44 29.4 °F /  -1.4 °C 24.3 °F /  -4.3 °C 30.43in /  1030.4hPa Calm     81% 0.00in /  0mm 0 W/m2
02:49 29.3 °F /  -1.5 °C 24.3 °F /  -4.3 °C 30.42in /  1030hPa Calm     81.1% 0.00in /  0mm 0 W/m2
02:54 29.2 °F /  -1.6 °C 24.4 °F /  -4.2 °C 30.42in /  1030hPa Calm     82% 0.00in /  0mm 0 W/m2
02:59 29.1 °F /  -1.6 °C 24.3 °F /  -4.3 °C 30.42in /  1030hPa Calm     82% 0.00in /  0mm 0 W/m2
03:04 29 °F /  -1.7 °C 24.5 °F /  -4.2 °C 30.42in /  1030hPa Calm     82.9% 0.00in /  0mm 0 W/m2
03:09 29 °F /  -1.7 °C 24.5 °F /  -4.2 °C 30.42in /  1030hPa Calm     83% 0.00in /  0mm 0 W/m2
03:14 29 °F /  -1.7 °C 24.7 °F /  -4.1 °C 30.42in /  1030hPa Calm     83.8% 0.00in /  0mm 0 W/m2
03:19 29 °F /  -1.7 °C 24.7 °F /  -4.1 °C 30.42in /  1030hPa Calm     84% 0.00in /  0mm 0 W/m2
03:24 28.9 °F /  -1.7 °C 24.7 °F /  -4.1 °C 30.42in /  1030hPa Calm     84% 0.00in /  0mm 0 W/m2
03:29 28.9 °F /  -1.7 °C 24.7 °F /  -4.1 °C 30.42in /  1030hPa Calm     84% 0.00in /  0mm 0 W/m2
03:34 28.9 °F /  -1.7 °C 24.7 °F /  -4.1 °C 30.42in /  1030hPa Calm     84% 0.00in /  0mm 0 W/m2
03:39 28.9 °F /  -1.7 °C 24.7 °F /  -4.1 °C 30.42in /  1030hPa Calm     84% 0.00in /  0mm 0 W/m2
03:44 28.8 °F /  -1.8 °C 24.7 °F /  -4.1 °C 30.43in /  1030.4hPa Calm     84.5% 0.00in /  0mm 0 W/m2
03:49 28.8 °F /  -1.8 °C 24.9 °F /  -3.9 °C 30.43in /  1030.4hPa Calm     85% 0.00in /  0mm 0 W/m2
03:54 28.8 °F /  -1.8 °C 24.9 °F /  -3.9 °C 30.43in /  1030.4hPa Calm     85% 0.00in /  0mm 0 W/m2
03:59 28.8 °F /  -1.8 °C 24.9 °F /  -3.9 °C 30.43in /  1030.4hPa Calm     85% 0.00in /  0mm 0 W/m2
04:00 28.8 °F /  -1.8 °C 24.9 °F /  -3.9 °C 30.43in /  1030.4hPa Calm     85% 0.00in /  0mm 0 W/m2
04:09 28.8 °F /  -1.8 °C 24.9 °F /  -3.9 °C 30.43in /  1030.4hPa Calm     85% 0.00in /  0mm 0 W/m2
04:14 28.8 °F /  -1.8 °C 24.9 °F /  -3.9 °C 30.43in /  1030.4hPa Calm     85% 0.00in /  0mm 0 W/m2
04:19 28.8 °F /  -1.8 °C 24.9 °F /  -3.9 °C 30.44in /  1030.7hPa Calm     85% 0.00in /  0mm 0 W/m2
04:24 28.8 °F /  -1.8 °C 24.8 °F /  -4 °C 30.44in /  1030.7hPa Calm     85% 0.00in /  0mm 0 W/m2
04:29 28.8 °F /  -1.8 °C 24.8 °F /  -4 °C 30.44in /  1030.7hPa Calm     85% 0.00in /  0mm 0 W/m2
04:34 28.7 °F /  -1.8 °C 24.8 °F /  -4 °C 30.44in /  1030.7hPa Calm     85% 0.00in /  0mm 0 W/m2
04:39 28.7 °F /  -1.8 °C 24.7 °F /  -4.1 °C 30.45in /  1031hPa Calm     85% 0.00in /  0mm 0 W/m2
04:44 28.6 °F /  -1.9 °C 24.7 °F /  -4.1 °C 30.45in /  1031hPa Calm     85% 0.00in /  0mm 0 W/m2
04:49 28.5 °F /  -1.9 °C 24.6 °F /  -4.1 °C 30.45in /  1031hPa Calm     85% 0.00in /  0mm 0 W/m2
04:54 28.5 °F /  -1.9 °C 24.5 °F /  -4.2 °C 30.45in /  1031hPa Calm     85% 0.00in /  0mm 0 W/m2
04:59 28.3 °F /  -2.1 °C 24.7 °F /  -4.1 °C 30.45in /  1031hPa Calm     86% 0.00in /  0mm 0 W/m2
05:04 28.2 °F /  -2.1 °C 24.6 °F /  -4.1 °C 30.45in /  1031hPa Calm     86% 0.00in /  0mm 0 W/m2
05:09 28.1 °F /  -2.2 °C 24.4 °F /  -4.2 °C 30.45in /  1031hPa Calm     86% 0.00in /  0mm 0 W/m2
05:14 28 °F /  -2.2 °C 24.4 °F /  -4.2 °C 30.46in /  1031.4hPa Calm     86% 0.00in /  0mm 0 W/m2
05:19 28 °F /  -2.2 °C 24.3 °F /  -4.3 °C 30.46in /  1031.4hPa Calm     86% 0.00in /  0mm 0 W/m2
05:24 27.9 °F /  -2.3 °C 24.3 °F /  -4.3 °C 30.46in /  1031.4hPa Calm     86% 0.00in /  0mm 0 W/m2
05:29 27.9 °F /  -2.3 °C 24.3 °F /  -4.3 °C 30.46in /  1031.4hPa Calm     86% 0.00in /  0mm 0 W/m2
05:34 27.9 °F /  -2.3 °C 24.3 °F /  -4.3 °C 30.47in /  1031.7hPa Calm     86% 0.00in /  0mm 0 W/m2
05:39 27.8 °F /  -2.3 °C 24.3 °F /  -4.3 °C 30.47in /  1031.7hPa Calm     86.3% 0.00in /  0mm 0 W/m2
05:44 27.8 °F /  -2.3 °C 24.4 °F /  -4.2 °C 30.47in /  1031.7hPa Calm     87% 0.00in /  0mm 0 W/m2
05:49 27.7 °F /  -2.4 °C 24.3 °F /  -4.3 °C 30.47in /  1031.7hPa Calm     87% 0.00in /  0mm 0 W/m2
05:54 27.7 °F /  -2.4 °C 24.3 °F /  -4.3 °C 30.46in /  1031.4hPa Calm     87% 0.00in /  0mm 0 W/m2
05:59 27.6 °F /  -2.4 °C 24.2 °F /  -4.3 °C 30.46in /  1031.4hPa Calm     87% 0.00in /  0mm 0 W/m2
06:04 27.5 °F /  -2.5 °C 24.2 °F /  -4.3 °C 30.46in /  1031.4hPa Calm     87% 0.00in /  0mm 0 W/m2
06:09 27.5 °F /  -2.5 °C 24.1 °F /  -4.4 °C 30.46in /  1031.4hPa Calm     87% 0.00in /  0mm 0 W/m2
06:14 27.4 °F /  -2.6 °C 24.1 °F /  -4.4 °C 30.46in /  1031.4hPa Calm     87% 0.00in /  0mm 0 W/m2
06:19 27.4 °F /  -2.6 °C 24 °F /  -4.4 °C 30.46in /  1031.4hPa Calm     87% 0.00in /  0mm 0 W/m2
06:24 27.3 °F /  -2.6 °C 24 °F /  -4.4 °C 30.47in /  1031.7hPa Calm     87% 0.00in /  0mm 0 W/m2
06:29 27.3 °F /  -2.6 °C 24.1 °F /  -4.4 °C 30.47in /  1031.7hPa Calm     87.4% 0.00in /  0mm 0 W/m2
06:34 27.3 °F /  -2.6 °C 24.2 °F /  -4.3 °C 30.47in /  1031.7hPa Calm     88% 0.00in /  0mm 0 W/m2
06:39 27.3 °F /  -2.6 °C 24.2 °F /  -4.3 °C 30.47in /  1031.7hPa Calm     88% 0.00in /  0mm 5 W/m2
06:44 27.2 °F /  -2.7 °C 24.1 °F /  -4.4 °C 30.47in /  1031.7hPa Calm     88% 0.00in /  0mm 7 W/m2
06:49 27.2 °F /  -2.7 °C 24.1 °F /  -4.4 °C 30.48in /  1032.1hPa Calm     88% 0.00in /  0mm 9 W/m2
06:54 27.2 °F /  -2.7 °C 24.1 °F /  -4.4 °C 30.48in /  1032.1hPa Calm     88% 0.00in /  0mm 12 W/m2
06:59 27.2 °F /  -2.7 °C 24.1 °F /  -4.4 °C 30.48in /  1032.1hPa Calm     88% 0.00in /  0mm 18 W/m2
07:04 27.3 °F /  -2.6 °C 24.2 °F /  -4.3 °C 30.48in /  1032.1hPa Calm     88% 0.00in /  0mm 33 W/m2
07:09 27.4 °F /  -2.6 °C 24.3 °F /  -4.3 °C 30.48in /  1032.1hPa Calm     88% 0.00in /  0mm 74 W/m2
07:14 27.7 °F /  -2.4 °C 24.9 °F /  -3.9 °C 30.48in /  1032.1hPa Calm     89% 0.00in /  0mm 93 W/m2
07:19 28.3 °F /  -2.1 °C 25.6 °F /  -3.6 °C 30.47in /  1031.7hPa Calm     89.6% 0.00in /  0mm 113 W/m2
07:24 29 °F /  -1.7 °C 26.4 °F /  -3.1 °C 30.47in /  1031.7hPa Calm     89.7% 0.00in /  0mm 148 W/m2
07:29 29.8 °F /  -1.2 °C 26.9 °F /  -2.8 °C 30.47in /  1031.7hPa Calm     89% 0.00in /  0mm 172 W/m2
07:34 30.6 °F /  -0.8 °C 27.5 °F /  -2.5 °C 30.48in /  1032.1hPa Calm     88.1% 0.00in /  0mm 199 W/m2
07:39 31.5 °F /  -0.3 °C 28.1 °F /  -2.2 °C 30.48in /  1032.1hPa Calm     87.1% 0.00in /  0mm 223 W/m2
07:44 32.3 °F /  0.2 °C 28.3 °F /  -2.1 °C 30.48in /  1032.1hPa Calm     84.9% 0.00in /  0mm 229 W/m2
07:49 32.9 °F /  0.5 °C 28.2 °F /  -2.1 °C 30.48in /  1032.1hPa Calm     82.5% 0.00in /  0mm 236 W/m2
07:54 33.6 °F /  0.9 °C 28.3 °F /  -2.1 °C 30.48in /  1032.1hPa Calm     80.7% 0.00in /  0mm 232 W/m2
07:59 34.2 °F /  1.2 °C 28.6 °F /  -1.9 °C 30.49in /  1032.4hPa Calm     79.7% 0.00in /  0mm 225 W/m2
08:09 35.3 °F /  1.8 °C 28.3 °F /  -2.1 °C 30.49in /  1032.4hPa NNW 0.3mph /  0.5km/h 2mph /  3.2km/h 75.4% 0.00in /  0mm 276 W/m2
08:14 35.7 °F /  2.1 °C 28.6 °F /  -1.9 °C 30.49in /  1032.4hPa NNW 0.4mph /  0.6km/h 3mph /  4.8km/h 74.8% 0.00in /  0mm 346 W/m2
08:19 36.4 °F /  2.4 °C 28.8 °F /  -1.8 °C 30.48in /  1032.1hPa NNW 0.1mph /  0.2km/h 3mph /  4.8km/h 73.5% 0.00in /  0mm 359 W/m2
08:24 37.1 °F /  2.8 °C 28.7 °F /  -1.8 °C 30.48in /  1032.1hPa NNE 0.7mph /  1.1km/h 5mph /  8km/h 71.5% 0.00in /  0mm 373 W/m2
08:29 37.6 °F /  3.1 °C 28.7 °F /  -1.8 °C 30.48in /  1032.1hPa NNE 0.5mph /  0.8km/h 5mph /  8km/h 69.9% 0.00in /  0mm 385 W/m2
08:34 38 °F /  3.3 °C 29 °F /  -1.7 °C 30.48in /  1032.1hPa Calm   5mph /  8km/h 69.7% 0.00in /  0mm 383 W/m2
08:39 38.6 °F /  3.7 °C 29.3 °F /  -1.5 °C 30.48in /  1032.1hPa Calm   2mph /  3.2km/h 68.9% 0.00in /  0mm 348 W/m2
08:44 39.1 °F /  3.9 °C 29.1 °F /  -1.6 °C 30.48in /  1032.1hPa NE 0.5mph /  0.8km/h 2mph /  3.2km/h 67.1% 0.00in /  0mm 339 W/m2
08:47 39.5 °F /  4.2 °C 29.4 °F /  -1.4 °C 30.48in /  1032.1hPa NE 0.2mph /  0.3km/h 2mph /  3.2km/h 67% 0.00in /  0mm 339 W/m2
09:00 40.3 °F /  4.6 °C 29.1 °F /  -1.6 °C 30.48in /  1032.1hPa Calm   5mph /  8km/h 64% 0.00in /  0mm 338 W/m2
09:30 38.7 °F /  3.7 °C 28.3 °F /  -2.1 °C 30.47in /  1031.7hPa NE 1mph /  1.6km/h 5mph /  8km/h 66% 0.00in /  0mm 190 W/m2
10:00 39.6 °F /  4.2 °C 28.1 °F /  -2.2 °C 30.47in /  1031.7hPa Calm   5mph /  8km/h 63% 0.00in /  0mm 248 W/m2
10:30 42.4 °F /  5.8 °C 27.8 °F /  -2.3 °C 30.48in /  1032.1hPa Calm   4mph /  6.4km/h 56% 0.00in /  0mm 460 W/m2
11:00 42.4 °F /  5.8 °C 27.8 °F /  -2.3 °C 30.47in /  1031.7hPa Calm   5mph /  8km/h 56% 0.00in /  0mm 206 W/m2
11:30 43.2 °F /  6.2 °C 27.2 °F /  -2.7 °C 30.44in /  1030.7hPa NE 1mph /  1.6km/h 5mph /  8km/h 53% 0.00in /  0mm 219 W/m2
12:04 43.7 °F /  6.5 °C 26.4 °F /  -3.1 °C 30.44in /  1030.7hPa NE 0.1mph /  0.2km/h 5mph /  8km/h 50.4% 0.00in /  0mm 262 W/m2
12:09 43.8 °F /  6.6 °C 26.2 °F /  -3.2 °C 30.41in /  1029.7hPa NE 1.2mph /  1.9km/h 7mph /  11.3km/h 49.6% 0.00in /  0mm 232 W/m2
12:14 43.8 °F /  6.6 °C 26.1 °F /  -3.3 °C 30.41in /  1029.7hPa ENE 1.9mph /  3.1km/h 7mph /  11.3km/h 49.6% 0.00in /  0mm 230 W/m2
12:19 43.6 °F /  6.4 °C 26 °F /  -3.3 °C 30.41in /  1029.7hPa ENE 0.9mph /  1.4km/h 7mph /  11.3km/h 49.5% 0.00in /  0mm 206 W/m2
12:24 43.5 °F /  6.4 °C 25.8 °F /  -3.4 °C 30.41in /  1029.7hPa NE 0.4mph /  0.6km/h 7mph /  11.3km/h 49.4% 0.00in /  0mm 211 W/m2
12:29 43.6 °F /  6.4 °C 26.5 °F /  -3.1 °C 30.41in /  1029.7hPa North 1.3mph /  2.1km/h 7mph /  11.3km/h 50.7% 0.00in /  0mm 253 W/m2
12:34 43.8 °F /  6.6 °C 26.6 °F /  -3 °C 30.41in /  1029.7hPa NE 0.7mph /  1.1km/h 7mph /  11.3km/h 50.5% 0.00in /  0mm 206 W/m2
12:39 43.8 °F /  6.6 °C 26.4 °F /  -3.1 °C 30.41in /  1029.7hPa NE 0.3mph /  0.5km/h 5mph /  8km/h 50.1% 0.00in /  0mm 162 W/m2
12:41 43.7 °F /  6.5 °C 25.9 °F /  -3.4 °C 30.40in /  1029.3hPa Calm   5mph /  8km/h 49.3% 0.00in /  0mm 139 W/m2
Hartford County Weather
Compliments of Weather Underground - 2 mb